sensor_id;sensor_type;location;lat;lon;timestamp;P1;durP1;ratioP1;P2;durP2;ratioP2
23242;SDS011;11790;49.578;11.214;2023-05-02T00:00:08;17.00;;;11.43;;
23242;SDS011;11790;49.578;11.214;2023-05-02T00:05:08;16.67;;;10.65;;
23242;SDS011;11790;49.578;11.214;2023-05-02T00:10:08;15.80;;;11.15;;
23242;SDS011;11790;49.578;11.214;2023-05-02T00:15:09;16.38;;;11.05;;
23242;SDS011;11790;49.578;11.214;2023-05-02T00:20:10;19.83;;;10.38;;
23242;SDS011;11790;49.578;11.214;2023-05-02T00:25:10;15.13;;;11.13;;
23242;SDS011;11790;49.578;11.214;2023-05-02T00:30:15;19.15;;;12.13;;
23242;SDS011;11790;49.578;11.214;2023-05-02T00:35:15;14.95;;;11.00;;
23242;SDS011;11790;49.578;11.214;2023-05-02T00:40:15;14.60;;;10.70;;
23242;SDS011;11790;49.578;11.214;2023-05-02T00:45:15;18.15;;;11.65;;
23242;SDS011;11790;49.578;11.214;2023-05-02T00:50:16;16.95;;;11.23;;
23242;SDS011;11790;49.578;11.214;2023-05-02T00:55:16;21.50;;;12.18;;
23242;SDS011;11790;49.578;11.214;2023-05-02T01:00:17;17.13;;;10.32;;
23242;SDS011;11790;49.578;11.214;2023-05-02T01:05:20;20.60;;;11.95;;
23242;SDS011;11790;49.578;11.214;2023-05-02T01:10:24;15.63;;;11.07;;
23242;SDS011;11790;49.578;11.214;2023-05-02T01:15:28;14.90;;;10.40;;
23242;SDS011;11790;49.578;11.214;2023-05-02T01:20:29;17.20;;;11.25;;
23242;SDS011;11790;49.578;11.214;2023-05-02T01:30:44;13.98;;;9.32;;
23242;SDS011;11790;49.578;11.214;2023-05-02T01:35:45;17.08;;;10.23;;
23242;SDS011;11790;49.578;11.214;2023-05-02T01:40:46;16.35;;;10.57;;
23242;SDS011;11790;49.578;11.214;2023-05-02T01:45:47;16.20;;;10.57;;
23242;SDS011;11790;49.578;11.214;2023-05-02T01:50:48;16.80;;;10.25;;
23242;SDS011;11790;49.578;11.214;2023-05-02T01:55:50;17.17;;;10.00;;
23242;SDS011;11790;49.578;11.214;2023-05-02T02:00:50;16.65;;;10.50;;
23242;SDS011;11790;49.578;11.214;2023-05-02T02:05:52;18.88;;;11.30;;
23242;SDS011;11790;49.578;11.214;2023-05-02T02:10:56;17.23;;;11.20;;
23242;SDS011;11790;49.578;11.214;2023-05-02T02:15:58;18.15;;;11.82;;
23242;SDS011;11790;49.578;11.214;2023-05-02T02:20:58;19.88;;;12.57;;
23242;SDS011;11790;49.578;11.214;2023-05-02T02:25:58;25.37;;;12.37;;
23242;SDS011;11790;49.578;11.214;2023-05-02T02:31:00;19.85;;;12.43;;
23242;SDS011;11790;49.578;11.214;2023-05-02T02:36:20;20.67;;;13.95;;
23242;SDS011;11790;49.578;11.214;2023-05-02T02:41:26;20.38;;;13.27;;
23242;SDS011;11790;49.578;11.214;2023-05-02T02:46:37;19.10;;;12.73;;
23242;SDS011;11790;49.578;11.214;2023-05-02T02:56:44;16.50;;;10.35;;
23242;SDS011;11790;49.578;11.214;2023-05-02T03:01:47;18.38;;;11.63;;
23242;SDS011;11790;49.578;11.214;2023-05-02T03:06:48;17.55;;;11.63;;
23242;SDS011;11790;49.578;11.214;2023-05-02T03:11:48;22.77;;;12.70;;
23242;SDS011;11790;49.578;11.214;2023-05-02T03:16:48;17.77;;;11.98;;
23242;SDS011;11790;49.578;11.214;2023-05-02T03:21:49;23.10;;;12.50;;
23242;SDS011;11790;49.578;11.214;2023-05-02T03:26:49;20.52;;;13.35;;
23242;SDS011;11790;49.578;11.214;2023-05-02T03:31:53;21.20;;;13.30;;
23242;SDS011;11790;49.578;11.214;2023-05-02T03:36:53;22.83;;;13.82;;
23242;SDS011;11790;49.578;11.214;2023-05-02T03:41:53;21.67;;;14.63;;
23242;SDS011;11790;49.578;11.214;2023-05-02T03:46:53;20.17;;;13.55;;
23242;SDS011;11790;49.578;11.214;2023-05-02T03:51:53;21.75;;;14.52;;
23242;SDS011;11790;49.578;11.214;2023-05-02T03:56:53;23.95;;;14.38;;
23242;SDS011;11790;49.578;11.214;2023-05-02T04:01:54;20.30;;;12.85;;
23242;SDS011;11790;49.578;11.214;2023-05-02T04:06:54;19.23;;;13.63;;
23242;SDS011;11790;49.578;11.214;2023-05-02T04:11:54;21.52;;;13.63;;
23242;SDS011;11790;49.578;11.214;2023-05-02T04:16:54;21.20;;;13.90;;
23242;SDS011;11790;49.578;11.214;2023-05-02T04:21:55;20.00;;;13.57;;
23242;SDS011;11790;49.578;11.214;2023-05-02T04:26:55;19.13;;;13.15;;
23242;SDS011;11790;49.578;11.214;2023-05-02T04:31:55;22.30;;;15.38;;
23242;SDS011;11790;49.578;11.214;2023-05-02T04:36:55;22.73;;;14.98;;
23242;SDS011;11790;49.578;11.214;2023-05-02T04:41:55;23.20;;;14.40;;
23242;SDS011;11790;49.578;11.214;2023-05-02T04:46:55;21.63;;;14.15;;
23242;SDS011;11790;49.578;11.214;2023-05-02T04:51:56;21.52;;;13.70;;
23242;SDS011;11790;49.578;11.214;2023-05-02T04:56:56;20.23;;;13.02;;
23242;SDS011;11790;49.578;11.214;2023-05-02T05:01:58;18.40;;;13.05;;
23242;SDS011;11790;49.578;11.214;2023-05-02T05:06:58;18.98;;;13.85;;
23242;SDS011;11790;49.578;11.214;2023-05-02T05:11:58;36.50;;;21.98;;
23242;SDS011;11790;49.578;11.214;2023-05-02T05:17:00;32.53;;;21.23;;
23242;SDS011;11790;49.578;11.214;2023-05-02T05:22:01;31.45;;;20.08;;
23242;SDS011;11790;49.578;11.214;2023-05-02T05:27:01;30.55;;;19.13;;
23242;SDS011;11790;49.578;11.214;2023-05-02T05:32:01;29.02;;;17.55;;
23242;SDS011;11790;49.578;11.214;2023-05-02T05:37:01;27.10;;;16.65;;
23242;SDS011;11790;49.578;11.214;2023-05-02T05:42:04;23.97;;;16.47;;
23242;SDS011;11790;49.578;11.214;2023-05-02T05:47:04;21.25;;;14.88;;
23242;SDS011;11790;49.578;11.214;2023-05-02T05:52:05;22.15;;;16.30;;
23242;SDS011;11790;49.578;11.214;2023-05-02T05:57:05;22.05;;;15.80;;
23242;SDS011;11790;49.578;11.214;2023-05-02T06:02:06;21.30;;;14.53;;
23242;SDS011;11790;49.578;11.214;2023-05-02T06:07:06;21.65;;;15.25;;
23242;SDS011;11790;49.578;11.214;2023-05-02T06:12:06;24.52;;;15.40;;
23242;SDS011;11790;49.578;11.214;2023-05-02T06:17:06;24.20;;;15.80;;
23242;SDS011;11790;49.578;11.214;2023-05-02T06:22:07;22.67;;;15.73;;
23242;SDS011;11790;49.578;11.214;2023-05-02T06:27:07;27.20;;;16.10;;
23242;SDS011;11790;49.578;11.214;2023-05-02T06:32:07;23.33;;;15.73;;
23242;SDS011;11790;49.578;11.214;2023-05-02T06:37:09;24.98;;;15.15;;
23242;SDS011;11790;49.578;11.214;2023-05-02T06:42:09;22.88;;;15.00;;
23242;SDS011;11790;49.578;11.214;2023-05-02T06:47:10;21.30;;;14.90;;
23242;SDS011;11790;49.578;11.214;2023-05-02T06:52:10;18.98;;;13.90;;
23242;SDS011;11790;49.578;11.214;2023-05-02T06:57:10;26.75;;;14.75;;
23242;SDS011;11790;49.578;11.214;2023-05-02T07:02:10;20.30;;;14.77;;
23242;SDS011;11790;49.578;11.214;2023-05-02T07:07:10;21.30;;;15.13;;
23242;SDS011;11790;49.578;11.214;2023-05-02T07:12:11;20.00;;;14.10;;
23242;SDS011;11790;49.578;11.214;2023-05-02T07:17:11;20.45;;;15.13;;
23242;SDS011;11790;49.578;11.214;2023-05-02T07:22:11;23.95;;;16.40;;
23242;SDS011;11790;49.578;11.214;2023-05-02T07:27:11;22.40;;;15.48;;
23242;SDS011;11790;49.578;11.214;2023-05-02T07:32:11;26.60;;;15.50;;
23242;SDS011;11790;49.578;11.214;2023-05-02T07:37:12;22.38;;;15.80;;
23242;SDS011;11790;49.578;11.214;2023-05-02T07:42:12;23.45;;;15.13;;
23242;SDS011;11790;49.578;11.214;2023-05-02T07:47:12;21.95;;;15.40;;
23242;SDS011;11790;49.578;11.214;2023-05-02T07:52:12;21.25;;;13.73;;
23242;SDS011;11790;49.578;11.214;2023-05-02T07:57:13;20.45;;;13.90;;
23242;SDS011;11790;49.578;11.214;2023-05-02T08:02:14;19.58;;;13.98;;
23242;SDS011;11790;49.578;11.214;2023-05-02T08:07:16;16.05;;;12.95;;
23242;SDS011;11790;49.578;11.214;2023-05-02T08:12:16;17.35;;;12.88;;
23242;SDS011;11790;49.578;11.214;2023-05-02T08:17:17;16.63;;;12.75;;
23242;SDS011;11790;49.578;11.214;2023-05-02T08:22:17;19.85;;;12.93;;
23242;SDS011;11790;49.578;11.214;2023-05-02T08:27:17;19.25;;;13.77;;
23242;SDS011;11790;49.578;11.214;2023-05-02T08:32:17;17.98;;;12.40;;
23242;SDS011;11790;49.578;11.214;2023-05-02T08:37:17;16.50;;;12.45;;
23242;SDS011;11790;49.578;11.214;2023-05-02T08:42:18;17.02;;;12.68;;
23242;SDS011;11790;49.578;11.214;2023-05-02T08:47:19;18.10;;;13.15;;
23242;SDS011;11790;49.578;11.214;2023-05-02T08:52:21;17.23;;;12.77;;
23242;SDS011;11790;49.578;11.214;2023-05-02T08:57:22;16.98;;;12.75;;
23242;SDS011;11790;49.578;11.214;2023-05-02T09:07:41;14.85;;;10.60;;
23242;SDS011;11790;49.578;11.214;2023-05-02T09:12:42;12.80;;;9.65;;
23242;SDS011;11790;49.578;11.214;2023-05-02T09:17:44;11.53;;;8.80;;
23242;SDS011;11790;49.578;11.214;2023-05-02T09:22:48;10.38;;;8.45;;
23242;SDS011;11790;49.578;11.214;2023-05-02T09:27:52;10.98;;;8.25;;
23242;SDS011;11790;49.578;11.214;2023-05-02T09:32:53;9.13;;;7.55;;
23242;SDS011;11790;49.578;11.214;2023-05-02T09:37:55;11.25;;;8.45;;
23242;SDS011;11790;49.578;11.214;2023-05-02T09:42:55;8.48;;;7.55;;
23242;SDS011;11790;49.578;11.214;2023-05-02T09:47:56;8.68;;;7.72;;
23242;SDS011;11790;49.578;11.214;2023-05-02T09:53:04;8.43;;;7.35;;
23242;SDS011;11790;49.578;11.214;2023-05-02T09:58:04;9.90;;;7.68;;
23242;SDS011;11790;49.578;11.214;2023-05-02T10:03:06;9.77;;;7.82;;
23242;SDS011;11790;49.578;11.214;2023-05-02T10:08:07;7.30;;;6.22;;
23242;SDS011;11790;49.578;11.214;2023-05-02T10:13:08;8.70;;;6.95;;
23242;SDS011;11790;49.578;11.214;2023-05-02T10:18:12;7.40;;;6.37;;
23242;SDS011;11790;49.578;11.214;2023-05-02T10:23:14;8.23;;;6.20;;
23242;SDS011;11790;49.578;11.214;2023-05-02T10:28:15;7.18;;;5.70;;
23242;SDS011;11790;49.578;11.214;2023-05-02T10:33:15;7.68;;;6.55;;
23242;SDS011;11790;49.578;11.214;2023-05-02T10:38:17;8.43;;;6.72;;
23242;SDS011;11790;49.578;11.214;2023-05-02T10:43:18;7.03;;;5.97;;
23242;SDS011;11790;49.578;11.214;2023-05-02T10:48:19;6.50;;;5.80;;
23242;SDS011;11790;49.578;11.214;2023-05-02T10:53:24;7.55;;;5.93;;
23242;SDS011;11790;49.578;11.214;2023-05-02T10:58:25;7.47;;;6.03;;
23242;SDS011;11790;49.578;11.214;2023-05-02T11:03:52;5.70;;;4.60;;
23242;SDS011;11790;49.578;11.214;2023-05-02T11:08:52;4.85;;;4.35;;
23242;SDS011;11790;49.578;11.214;2023-05-02T11:13:52;7.20;;;4.87;;
23242;SDS011;11790;49.578;11.214;2023-05-02T11:18:58;5.07;;;4.57;;
23242;SDS011;11790;49.578;11.214;2023-05-02T11:29:50;5.30;;;4.25;;
23242;SDS011;11790;49.578;11.214;2023-05-02T11:34:45;7.10;;;5.05;;
23242;SDS011;11790;49.578;11.214;2023-05-02T11:39:46;4.68;;;4.07;;
23242;SDS011;11790;49.578;11.214;2023-05-02T11:44:59;6.70;;;4.47;;
23242;SDS011;11790;49.578;11.214;2023-05-02T11:50:02;5.00;;;4.00;;
23242;SDS011;11790;49.578;11.214;2023-05-02T11:55:06;5.70;;;3.80;;
23242;SDS011;11790;49.578;11.214;2023-05-02T12:00:08;5.53;;;3.70;;
23242;SDS011;11790;49.578;11.214;2023-05-02T12:05:10;3.90;;;3.50;;
23242;SDS011;11790;49.578;11.214;2023-05-02T12:10:12;10.98;;;4.57;;
23242;SDS011;11790;49.578;11.214;2023-05-02T12:15:12;5.80;;;3.63;;
23242;SDS011;11790;49.578;11.214;2023-05-02T12:20:12;6.37;;;4.33;;
23242;SDS011;11790;49.578;11.214;2023-05-02T12:25:12;6.45;;;4.95;;
23242;SDS011;11790;49.578;11.214;2023-05-02T12:30:24;6.35;;;4.28;;
23242;SDS011;11790;49.578;11.214;2023-05-02T12:35:24;6.07;;;3.83;;
23242;SDS011;11790;49.578;11.214;2023-05-02T12:40:24;5.97;;;4.85;;
23242;SDS011;11790;49.578;11.214;2023-05-02T12:45:25;6.72;;;5.22;;
23242;SDS011;11790;49.578;11.214;2023-05-02T12:50:34;6.78;;;4.63;;
23242;SDS011;11790;49.578;11.214;2023-05-02T12:55:35;7.70;;;5.03;;
23242;SDS011;11790;49.578;11.214;2023-05-02T13:00:36;8.97;;;5.60;;
23242;SDS011;11790;49.578;11.214;2023-05-02T13:05:37;5.82;;;4.18;;
23242;SDS011;11790;49.578;11.214;2023-05-02T13:10:37;6.00;;;4.72;;
23242;SDS011;11790;49.578;11.214;2023-05-02T13:15:37;6.00;;;4.20;;
23242;SDS011;11790;49.578;11.214;2023-05-02T13:20:38;4.90;;;4.07;;
23242;SDS011;11790;49.578;11.214;2023-05-02T13:25:38;5.93;;;4.40;;
23242;SDS011;11790;49.578;11.214;2023-05-02T13:30:38;5.43;;;3.40;;
23242;SDS011;11790;49.578;11.214;2023-05-02T13:35:39;8.68;;;3.67;;
23242;SDS011;11790;49.578;11.214;2023-05-02T13:40:39;6.53;;;3.38;;
23242;SDS011;11790;49.578;11.214;2023-05-02T13:45:40;5.25;;;4.47;;
23242;SDS011;11790;49.578;11.214;2023-05-02T13:50:40;9.02;;;4.68;;
23242;SDS011;11790;49.578;11.214;2023-05-02T13:55:40;6.85;;;5.10;;
23242;SDS011;11790;49.578;11.214;2023-05-02T14:00:40;5.38;;;4.00;;
23242;SDS011;11790;49.578;11.214;2023-05-02T14:05:41;4.70;;;3.40;;
23242;SDS011;11790;49.578;11.214;2023-05-02T14:10:42;6.38;;;3.53;;
23242;SDS011;11790;49.578;11.214;2023-05-02T14:15:43;2.85;;;2.50;;
23242;SDS011;11790;49.578;11.214;2023-05-02T14:20:43;3.80;;;2.30;;
23242;SDS011;11790;49.578;11.214;2023-05-02T14:25:43;2.95;;;1.70;;
23242;SDS011;11790;49.578;11.214;2023-05-02T14:30:43;2.00;;;1.33;;
23242;SDS011;11790;49.578;11.214;2023-05-02T14:35:43;1.73;;;1.42;;
23242;SDS011;11790;49.578;11.214;2023-05-02T14:40:44;2.20;;;1.52;;
23242;SDS011;11790;49.578;11.214;2023-05-02T14:45:44;1.98;;;1.40;;
23242;SDS011;11790;49.578;11.214;2023-05-02T14:50:44;3.05;;;1.88;;
23242;SDS011;11790;49.578;11.214;2023-05-02T14:55:44;3.40;;;2.00;;
23242;SDS011;11790;49.578;11.214;2023-05-02T15:00:45;2.13;;;1.13;;
23242;SDS011;11790;49.578;11.214;2023-05-02T15:05:46;1.83;;;1.00;;
23242;SDS011;11790;49.578;11.214;2023-05-02T15:10:46;0.90;;;0.80;;
23242;SDS011;11790;49.578;11.214;2023-05-02T15:15:46;1.80;;;1.00;;
23242;SDS011;11790;49.578;11.214;2023-05-02T15:20:46;2.60;;;0.93;;
23242;SDS011;11790;49.578;11.214;2023-05-02T15:25:47;1.50;;;1.10;;
23242;SDS011;11790;49.578;11.214;2023-05-02T15:30:47;1.42;;;1.20;;
23242;SDS011;11790;49.578;11.214;2023-05-02T15:35:51;1.45;;;1.35;;
23242;SDS011;11790;49.578;11.214;2023-05-02T15:40:53;2.23;;;1.50;;
23242;SDS011;11790;49.578;11.214;2023-05-02T15:45:55;3.40;;;1.27;;
23242;SDS011;11790;49.578;11.214;2023-05-02T15:50:55;1.90;;;1.08;;
23242;SDS011;11790;49.578;11.214;2023-05-02T15:55:56;1.40;;;0.77;;
23242;SDS011;11790;49.578;11.214;2023-05-02T16:00:56;1.67;;;1.13;;
23242;SDS011;11790;49.578;11.214;2023-05-02T16:05:56;0.80;;;0.80;;
23242;SDS011;11790;49.578;11.214;2023-05-02T16:10:58;1.40;;;0.90;;
23242;SDS011;11790;49.578;11.214;2023-05-02T16:16:00;1.25;;;0.90;;
23242;SDS011;11790;49.578;11.214;2023-05-02T16:21:00;1.83;;;1.00;;
23242;SDS011;11790;49.578;11.214;2023-05-02T16:26:00;1.93;;;1.17;;
23242;SDS011;11790;49.578;11.214;2023-05-02T16:31:04;2.83;;;1.10;;
23242;SDS011;11790;49.578;11.214;2023-05-02T16:36:05;1.50;;;1.20;;
23242;SDS011;11790;49.578;11.214;2023-05-02T16:41:06;1.50;;;1.10;;
23242;SDS011;11790;49.578;11.214;2023-05-02T16:46:06;1.63;;;1.10;;
23242;SDS011;11790;49.578;11.214;2023-05-02T16:51:06;1.52;;;1.40;;
23242;SDS011;11790;49.578;11.214;2023-05-02T16:56:06;2.10;;;1.67;;
23242;SDS011;11790;49.578;11.214;2023-05-02T17:01:07;2.65;;;1.60;;
23242;SDS011;11790;49.578;11.214;2023-05-02T17:06:07;2.13;;;1.88;;
23242;SDS011;11790;49.578;11.214;2023-05-02T17:11:07;3.05;;;2.00;;
23242;SDS011;11790;49.578;11.214;2023-05-02T17:16:07;3.22;;;1.80;;
23242;SDS011;11790;49.578;11.214;2023-05-02T17:21:08;1.85;;;1.60;;
23242;SDS011;11790;49.578;11.214;2023-05-02T17:26:08;2.83;;;2.13;;
23242;SDS011;11790;49.578;11.214;2023-05-02T17:31:13;2.58;;;2.10;;
23242;SDS011;11790;49.578;11.214;2023-05-02T17:36:14;4.78;;;2.42;;
23242;SDS011;11790;49.578;11.214;2023-05-02T17:41:14;3.92;;;3.00;;
23242;SDS011;11790;49.578;11.214;2023-05-02T17:46:15;6.53;;;3.03;;
23242;SDS011;11790;49.578;11.214;2023-05-02T17:51:15;6.43;;;2.88;;
23242;SDS011;11790;49.578;11.214;2023-05-02T17:56:15;4.45;;;2.40;;
23242;SDS011;11790;49.578;11.214;2023-05-02T18:01:17;4.97;;;2.78;;
23242;SDS011;11790;49.578;11.214;2023-05-02T18:06:17;4.87;;;2.70;;
23242;SDS011;11790;49.578;11.214;2023-05-02T18:11:18;4.10;;;2.88;;
23242;SDS011;11790;49.578;11.214;2023-05-02T18:16:19;3.97;;;2.70;;
23242;SDS011;11790;49.578;11.214;2023-05-02T18:21:19;3.53;;;2.75;;
23242;SDS011;11790;49.578;11.214;2023-05-02T18:26:20;4.80;;;2.80;;
23242;SDS011;11790;49.578;11.214;2023-05-02T18:31:20;5.10;;;2.80;;
23242;SDS011;11790;49.578;11.214;2023-05-02T18:36:24;5.88;;;3.08;;
23242;SDS011;11790;49.578;11.214;2023-05-02T18:41:26;4.78;;;2.80;;
23242;SDS011;11790;49.578;11.214;2023-05-02T18:46:26;4.07;;;2.67;;
23242;SDS011;11790;49.578;11.214;2023-05-02T18:51:26;3.92;;;2.92;;
23242;SDS011;11790;49.578;11.214;2023-05-02T18:56:28;3.67;;;2.67;;
23242;SDS011;11790;49.578;11.214;2023-05-02T19:01:28;4.13;;;2.70;;
23242;SDS011;11790;49.578;11.214;2023-05-02T19:06:28;4.35;;;3.15;;
23242;SDS011;11790;49.578;11.214;2023-05-02T19:11:30;9.48;;;5.40;;
23242;SDS011;11790;49.578;11.214;2023-05-02T19:16:30;7.55;;;3.50;;
23242;SDS011;11790;49.578;11.214;2023-05-02T19:21:30;4.30;;;3.17;;
23242;SDS011;11790;49.578;11.214;2023-05-02T19:26:31;4.30;;;3.38;;
23242;SDS011;11790;49.578;11.214;2023-05-02T19:31:32;4.03;;;3.10;;
23242;SDS011;11790;49.578;11.214;2023-05-02T19:36:33;4.80;;;2.88;;
23242;SDS011;11790;49.578;11.214;2023-05-02T19:41:33;4.53;;;3.20;;
23242;SDS011;11790;49.578;11.214;2023-05-02T19:46:33;3.75;;;2.58;;
23242;SDS011;11790;49.578;11.214;2023-05-02T19:51:33;5.60;;;2.75;;
23242;SDS011;11790;49.578;11.214;2023-05-02T19:56:34;3.67;;;2.90;;
23242;SDS011;11790;49.578;11.214;2023-05-02T20:01:34;3.42;;;2.75;;
23242;SDS011;11790;49.578;11.214;2023-05-02T20:06:34;3.80;;;2.60;;
23242;SDS011;11790;49.578;11.214;2023-05-02T20:11:35;3.88;;;2.63;;
23242;SDS011;11790;49.578;11.214;2023-05-02T20:16:35;4.65;;;2.55;;
23242;SDS011;11790;49.578;11.214;2023-05-02T20:21:35;3.33;;;2.40;;
23242;SDS011;11790;49.578;11.214;2023-05-02T20:26:36;3.03;;;2.55;;
23242;SDS011;11790;49.578;11.214;2023-05-02T20:31:36;7.10;;;2.72;;
23242;SDS011;11790;49.578;11.214;2023-05-02T20:36:36;4.25;;;2.75;;
23242;SDS011;11790;49.578;11.214;2023-05-02T20:41:37;6.80;;;3.13;;
23242;SDS011;11790;49.578;11.214;2023-05-02T20:46:37;4.10;;;2.80;;
23242;SDS011;11790;49.578;11.214;2023-05-02T20:51:37;4.78;;;2.92;;
23242;SDS011;11790;49.578;11.214;2023-05-02T20:56:37;4.35;;;2.97;;
23242;SDS011;11790;49.578;11.214;2023-05-02T21:01:38;4.87;;;3.37;;
23242;SDS011;11790;49.578;11.214;2023-05-02T21:06:38;4.97;;;3.28;;
23242;SDS011;11790;49.578;11.214;2023-05-02T21:11:38;8.25;;;3.80;;
23242;SDS011;11790;49.578;11.214;2023-05-02T21:16:39;4.55;;;3.25;;
23242;SDS011;11790;49.578;11.214;2023-05-02T21:21:39;5.70;;;3.40;;
23242;SDS011;11790;49.578;11.214;2023-05-02T21:26:39;5.47;;;3.40;;
23242;SDS011;11790;49.578;11.214;2023-05-02T21:31:40;6.07;;;3.72;;
23242;SDS011;11790;49.578;11.214;2023-05-02T21:36:40;10.52;;;4.18;;
23242;SDS011;11790;49.578;11.214;2023-05-02T21:41:42;5.25;;;3.72;;
23242;SDS011;11790;49.578;11.214;2023-05-02T21:46:44;5.72;;;3.97;;
23242;SDS011;11790;49.578;11.214;2023-05-02T21:51:45;6.40;;;3.90;;
23242;SDS011;11790;49.578;11.214;2023-05-02T21:56:45;6.28;;;4.38;;
23242;SDS011;11790;49.578;11.214;2023-05-02T22:01:45;5.20;;;3.65;;
23242;SDS011;11790;49.578;11.214;2023-05-02T22:06:48;6.90;;;3.65;;
23242;SDS011;11790;49.578;11.214;2023-05-02T22:16:52;6.75;;;4.30;;
23242;SDS011;11790;49.578;11.214;2023-05-02T22:21:56;11.45;;;5.03;;
23242;SDS011;11790;49.578;11.214;2023-05-02T22:27:00;9.80;;;5.15;;
23242;SDS011;11790;49.578;11.214;2023-05-02T22:32:01;7.63;;;4.97;;
23242;SDS011;11790;49.578;11.214;2023-05-02T22:37:01;9.20;;;5.63;;
23242;SDS011;11790;49.578;11.214;2023-05-02T22:42:01;8.00;;;5.45;;
23242;SDS011;11790;49.578;11.214;2023-05-02T22:47:02;8.23;;;5.70;;
23242;SDS011;11790;49.578;11.214;2023-05-02T22:52:02;9.68;;;5.28;;
23242;SDS011;11790;49.578;11.214;2023-05-02T22:57:02;8.68;;;5.65;;
23242;SDS011;11790;49.578;11.214;2023-05-02T23:02:03;8.07;;;5.57;;
23242;SDS011;11790;49.578;11.214;2023-05-02T23:07:04;9.82;;;5.47;;
23242;SDS011;11790;49.578;11.214;2023-05-02T23:12:04;10.63;;;5.75;;
23242;SDS011;11790;49.578;11.214;2023-05-02T23:17:04;10.43;;;6.13;;
23242;SDS011;11790;49.578;11.214;2023-05-02T23:22:04;10.32;;;5.93;;
23242;SDS011;11790;49.578;11.214;2023-05-02T23:27:04;10.90;;;6.30;;
23242;SDS011;11790;49.578;11.214;2023-05-02T23:32:06;13.27;;;6.40;;
23242;SDS011;11790;49.578;11.214;2023-05-02T23:37:07;11.65;;;6.78;;
23242;SDS011;11790;49.578;11.214;2023-05-02T23:42:07;15.33;;;6.67;;
23242;SDS011;11790;49.578;11.214;2023-05-02T23:47:07;12.82;;;6.82;;
23242;SDS011;11790;49.578;11.214;2023-05-02T23:52:07;15.18;;;7.07;;
23242;SDS011;11790;49.578;11.214;2023-05-02T23:57:08;12.88;;;6.68;;
